• Join FlightAware (Why Join?)
  • Login
  • US Flag 
11:52PM EDT


 

Airport Tracker/Info


-or-


 

Live Flight TrackerFlight Track Log ✈ N4757T ✈ 23-Jun-2013 ✈ KHUL - KMMU

Flight Track Log - Related Links

Times and Time Zones

All times are in EDT time to prevent confusion due to time zone crossing. See the N4757T flight status page for this flight to view local times or setup timezone preferences in your user account.

Time Position Orientation Groundspeed Altitude Reporting Facility
EDT Latitude Longitude Course Direction KTS MPH feet Rate Location/Type
03:46PM 46.0667 -67.8519 218° Southwest 133 153 2,900  Level Boston Center
03:47PM 46.0489 -67.8803 228° Southwest 113 130 3,700 720 Climbing Boston Center
03:48PM 46.0231 -67.9122 221° Southwest 107 123 4,600 780 Climbing Boston Center
03:49PM 45.9583 -67.9584 215° Southwest  Level FlightAware Approximate
03:49PM 46.0011 -67.9408 222° Southwest 107 123 5,300  Level Boston Center
03:50PM 45.9317 -67.9871 218° Southwest  Level FlightAware Approximate
03:50PM 45.9814 -67.9661 222° Southwest 107 123 5,900  Level Boston Center
03:51PM 45.9575 -67.9981 223° Southwest 107 123 6,100 60 Climbing Boston Center
03:52PM 45.9297 -68.0331 221° Southwest 120 138 6,100  Level Boston Center
03:53PM 45.8953 -68.0567 206° Southwest 131 151 6,100 -60 Level Boston Center
03:54PM 45.8628 -68.0831 209° Southwest 136 157 6,000  Descending Boston Center
03:55PM 45.8308 -68.1153 215° Southwest 136 157 6,100  Climbing Boston Center
03:56PM 45.7986 -68.1475 215° Southwest 141 162 6,000 -60 Descending Boston Center
03:57PM 45.7664 -68.1797 215° Southwest 141 162 6,000  Level Boston Center
03:58PM 45.7386 -68.2175 224° Southwest 141 162 6,000  Level Boston Center
03:59PM 45.7111 -68.2611 228° Southwest 146 168 6,000  Level Boston Center
04:00PM 45.6911 -68.2892 224° Southwest 146 168 6,100  Climbing Boston Center
04:01PM 45.6531 -68.3275 215° Southwest 146 168 6,100 -60 Level Boston Center
04:02PM 45.6208 -68.3597 215° Southwest 140 161 6,000 -60 Descending Boston Center
04:04PM 45.5886 -68.3917 215° Southwest 145 167 6,000  Level Boston Center
04:05PM 45.5503 -68.4269 213° Southwest 145 167 6,000  Level Boston Center
04:06PM 45.5200 -68.4586 216° Southwest 145 167 6,000  Level Boston Center
04:07PM 45.4900 -68.4903 217° Southwest 145 167 6,000  Level Boston Center
04:08PM 45.4556 -68.5225 213° Southwest 150 173 6,000  Level Boston Center
04:09PM 45.4275 -68.5597 223° Southwest 150 173 6,000  Level Boston Center
04:10PM 45.4039 -68.5997 230° Southwest 145 167 6,100  Climbing Boston Center
04:11PM 45.3717 -68.6344 217° Southwest 145 167 6,100  Level Boston Center
04:12PM 45.3475 -68.6567 213° Southwest 145 167 6,100 -60 Level Boston Center
04:13PM 45.3111 -68.6917 214° Southwest 145 167 6,000  Descending Boston Center
04:14PM 45.2786 -68.7172 209° Southwest 145 167 6,100  Climbing Boston Center
04:15PM 45.2464 -68.7519 217° Southwest 145 167 6,100 -60 Level Boston Center
04:16PM 45.2161 -68.7833 216° Southwest 145 167 6,000  Descending Boston Center
04:17PM 45.1903 -68.8231 227° Southwest 145 167 6,100  Climbing Boston Center
04:18PM 45.1517 -68.8581 213° Southwest 145 167 6,000 -60 Descending Boston Center
04:19PM 45.1194 -68.8922 217° Southwest 150 173 6,000  Level Boston Center
04:20PM 45.0936 -68.9292 225° Southwest 145 167 6,100  Climbing Boston Center
04:21PM 45.0611 -68.9606 214° Southwest 145 167 6,000  Descending Boston Center
04:23PM 45.0134 -69.0086 215° Southwest  Level FlightAware Approximate
04:30PM 44.8165 -69.2053 215° Southwest  Level FlightAware Approximate
04:31PM 44.7884 -69.2333 215° Southwest  Level FlightAware Approximate
04:32PM 44.7603 -69.2613 215° Southwest  Level FlightAware Approximate
04:33PM 44.7321 -69.2893 215° Southwest  Level FlightAware Approximate
04:34PM 44.7039 -69.3172 215° Southwest  Level FlightAware Approximate
04:35PM 44.6758 -69.3451 215° Southwest  Level FlightAware Approximate
04:36PM 44.6476 -69.3729 215° Southwest  Level FlightAware Approximate
04:37PM 44.6194 -69.4008 215° Southwest  Level FlightAware Approximate
04:38PM 44.5912 -69.4286 215° Southwest  Level FlightAware Approximate
04:39PM 44.5630 -69.4564 215° Southwest  Level FlightAware Approximate
04:40PM 44.5348 -69.4841 215° Southwest  Level FlightAware Approximate
04:41PM 44.5066 -69.5118 215° Southwest  Level FlightAware Approximate
04:42PM 44.4784 -69.5395 215° Southwest  Level FlightAware Approximate
04:43PM 44.4501 -69.5672 215° Southwest  Level FlightAware Approximate
04:44PM 44.4219 -69.5949 215° Southwest  Level FlightAware Approximate
04:45PM 44.3940 -69.6231 216° Southwest  Level FlightAware Approximate
04:46PM 44.3662 -69.6515 216° Southwest  Level FlightAware Approximate
04:47PM 44.3383 -69.6799 216° Southwest  Level FlightAware Approximate
04:48PM 44.3105 -69.7082 216° Southwest  Level FlightAware Approximate
04:49PM 44.2826 -69.7365 216° Southwest  Level FlightAware Approximate
04:50PM 44.2547 -69.7648 216° Southwest  Level FlightAware Approximate
04:51PM 44.2269 -69.7931 216° Southwest  Level FlightAware Approximate
04:52PM 44.1990 -69.8213 216° Southwest  Level FlightAware Approximate
04:53PM 44.1711 -69.8495 216° Southwest  Level FlightAware Approximate
04:54PM 44.1432 -69.8777 216° Southwest  Level FlightAware Approximate
04:55PM 44.1153 -69.9058 216° Southwest  Level FlightAware Approximate
04:56PM 44.0874 -69.9340 216° Southwest  Level FlightAware Approximate
04:57PM 44.0595 -69.9621 216° Southwest  Level FlightAware Approximate
04:58PM 44.0316 -69.9901 216° Southwest  Level FlightAware Approximate
04:59PM 44.0036 -70.0182 216° Southwest  Level FlightAware Approximate
05:00PM 43.9757 -70.0462 216° Southwest  Level FlightAware Approximate
05:01PM 43.9527 -70.0803 227° Southwest  Level Estimated
05:02PM 43.9298 -70.1144 227° Southwest  Level Estimated
05:03PM 43.9068 -70.1485 227° Southwest  Level Estimated
05:04PM 43.8838 -70.1825 227° Southwest  Level Estimated
05:05PM 43.8608 -70.2166 227° Southwest  Level Estimated
05:06PM 43.8378 -70.2505 227° Southwest  Level Estimated
05:07PM 43.8148 -70.2845 227° Southwest  Level Estimated
05:08PM 43.7917 -70.3185 227° Southwest  Level Estimated
05:09PM 43.7687 -70.3524 227° Southwest  Level Estimated
05:10PM 43.7456 -70.3863 227° Southwest  Level Estimated
05:11PM 43.7226 -70.4201 227° Southwest  Level Estimated
05:12PM 43.6897 -70.4395 203° Southwest  Level FlightAware Approximate
05:13PM 43.6569 -70.4589 203° Southwest  Level FlightAware Approximate
05:14PM 43.6240 -70.4783 203° Southwest  Level FlightAware Approximate
05:14PM 43.4833 -70.5333 203° Southwest 150 173 6,100  Level KA90
05:15PM 43.5911 -70.4977 203° Southwest  Level FlightAware Approximate
05:15PM 43.4167 -70.5333 180° South 150 173 6,000  Level KA90
05:16PM 43.5583 -70.5170 203° Southwest  Level FlightAware Approximate
05:16PM 43.3833 -70.5333 180° South 145 167 6,000  Level KA90
05:17PM 43.5254 -70.5363 203° Southwest  Level FlightAware Approximate
05:17PM 43.3333 -70.5500 194° South 141 162 6,000  Level KA90
05:18PM 43.4925 -70.5556 203° Southwest  Level FlightAware Approximate
05:18PM 43.3167 -70.5833 236° Southwest 135 155 5,900  Level KA90
05:19PM 43.4596 -70.5749 203° Southwest  Level FlightAware Approximate
05:19PM 43.3000 -70.6333 245° Southwest 130 150 6,000  Level KA90
05:20PM 43.4268 -70.5941 203° Southwest  Level FlightAware Approximate
05:20PM 43.2833 -70.6667 236° Southwest 130 150 6,000  Level KA90
05:21PM 43.2667 -70.7000 236° Southwest 135 155 6,000  Level KA90
05:22PM 43.2500 -70.7500 245° Southwest 127 146 6,100  Climbing KA90
05:23PM 43.2167 -70.7833 216° Southwest 123 142 6,100 -60 Level KA90
05:24PM 43.2000 -70.8333 245° Southwest 128 147 6,000 -60 Descending KA90
05:25PM 43.1833 -70.8667 236° Southwest 126 145 6,000  Level KA90
05:26PM 43.1667 -70.9167 245° Southwest 127 146 6,100  Climbing KA90
05:27PM 43.1500 -70.9500 236° Southwest 133 153 6,100 -60 Level KA90
05:28PM 43.1333 -71.0000 245° Southwest 130 150 6,000 -60 Descending KA90
05:29PM 43.1167 -71.0333 236° Southwest 132 152 6,000  Level KA90
05:30PM 43.0833 -71.0667 216° Southwest 134 154 6,100  Climbing KA90
05:31PM 43.0833 -71.1167 270° West 134 154 6,100 -60 Level KA90
05:32PM 43.0667 -71.1667 245° Southwest 137 158 6,000 -60 Descending KA90
05:33PM 43.0333 -71.2000 216° Southwest 132 152 6,000  Level KA90
05:34PM 43.0167 -71.2500 246° West 133 153 6,100  Climbing KA90
05:35PM 42.9833 -71.2833 216° Southwest 142 163 6,100 -120 Level KA90
05:36PM 42.9833 -71.3333 270° West 139 160 5,900 -120 Descending KA90
05:37PM 42.9667 -71.3667 236° Southwest 132 152 5,900  Level KA90
05:38PM 42.9333 -71.4167 228° Southwest 135 155 6,000  Climbing KA90
05:39PM 42.9167 -71.4500 236° Southwest 130 150 6,000  Level KA90
05:40PM 42.9000 -71.5000 246° West 122 140 6,000  Level KA90
05:41PM 42.8833 -71.5333 236° Southwest 123 142 6,100  Climbing KA90
05:42PM 42.8500 -71.5833 228° Southwest 134 154 6,100 -60 Level KA90
05:43PM 42.8333 -71.6167 236° Southwest 134 154 6,000 -60 Descending KA90
05:44PM 42.8167 -71.6667 246° West 135 155 6,000 -60 Level KA90
05:45PM 42.8000 -71.7000 236° Southwest 129 148 5,900 -60 Descending KA90
05:46PM 42.7756 -71.7500 236° Southwest 129 148 5,900  Level Boston Center
05:47PM 42.7550 -71.7842 231° Southwest 140 161 5,900 -60 Level Boston Center
05:48PM 42.7281 -71.8297 231° Southwest 140 161 5,800 -60 Descending Boston Center
05:49PM 42.7011 -71.8581 218° Southwest 130 150 5,800  Level Boston Center
05:50PM 42.6636 -71.8811 204° Southwest 130 150 5,800  Level Boston Center
05:51PM 42.6325 -71.9039 208° Southwest 135 155 5,900 60 Climbing Boston Center
05:52PM 42.6097 -71.9294 220° Southwest 142 163 5,900  Level Boston Center
05:53PM 42.5619 -71.9497 197° South 140 161 6,000  Climbing Boston Center
05:54PM 42.5308 -71.9667 202° Southwest 137 158 6,000  Level Boston Center
05:55PM 42.4975 -71.9894 207° Southwest 138 159 6,000  Level Boston Center
05:56PM 42.4581 -72.0067 198° South 142 163 6,000  Level Boston Center
05:57PM 42.4206 -72.0211 196° South 146 168 6,000  Level Boston Center
05:58PM 42.3892 -72.0436 208° Southwest 139 160 6,000  Level Boston Center
05:59PM 42.3478 -72.0722 207° Southwest 143 165 6,000 -60 Level Boston Center
06:00PM 42.3144 -72.0864 197° South 140 161 5,900  Descending Boston Center
06:01PM 42.2811 -72.1117 209° Southwest 138 159 6,000 60 Climbing Boston Center
06:02PM 42.2500 -72.1456 219° Southwest 140 161 6,100  Climbing Boston Center
06:03PM 42.2125 -72.1625 199° South 149 171 6,000 -120 Descending Boston Center
06:04PM 42.1603 -72.1767 191° South 150 173 5,900  Descending Boston Center
06:05PM 42.1292 -72.1908 199° South 150 173 6,000  Climbing Boston Center
06:06PM 42.0833 -72.2164 202° Southwest 149 171 5,900  Descending Boston Center
06:07PM 42.0375 -72.2361 198° South 146 168 6,000  Climbing Boston Center
06:08PM 42.0147 -72.2528 209° Southwest 147 169 6,000 -120 Level Boston Center
06:09PM 41.9814 -72.2697 201° Southwest 135 155 5,900  Descending Boston Center
06:10PM 41.9272 -72.2783 187° South 150 173 6,100  Climbing Boston Center
06:11PM 41.8981 -72.3147 223° Southwest 137 158 5,900 -60 Descending Boston Center
06:12PM 41.8711 -72.3536 227° Southwest 134 154 6,000 60 Climbing Boston Center
06:13PM 41.8544 -72.3731 221° Southwest 133 153 6,000  Level Boston Center
06:14PM 41.8189 -72.4261 228° Southwest 135 155 6,000  Level Boston Center
06:15PM 41.8064 -72.4456 229° Southwest 135 155 6,000  Level Boston Center
06:16PM 41.7836 -72.4875 234° Southwest 132 152 6,000  Level Boston Center
06:17PM 41.7667 -72.5347 244° Southwest 133 153 6,000  Level Boston Center
06:18PM 41.7397 -72.5681 223° Southwest 136 157 6,100  Climbing Boston Center
06:19PM 41.7167 -72.5986 225° Southwest 135 155 6,100 -120 Level Boston Center
06:20PM 41.6917 -72.6569 240° Southwest 135 155 5,900  Descending Boston Center
06:21PM 41.6664 -72.6931 227° Southwest 134 154 6,100  Climbing Boston Center
06:22PM 41.6456 -72.7372 238° Southwest 136 157 6,000 -60 Descending Boston Center
06:23PM 41.6247 -72.7789 236° Southwest 140 161 6,000  Level Boston Center
06:24PM 41.6036 -72.8122 230° Southwest 137 158 6,000  Level Boston Center
06:26PM 41.5500 -72.8833 225° Southwest 139 160 6,100  Climbing New York TRACON
06:27PM 41.5333 -72.9167 236° Southwest 137 158 6,100  Level New York TRACON
06:28PM 41.5167 -72.9667 246° West 139 160 6,100  Level New York TRACON
06:29PM 41.4833 -73.0167 228° Southwest 134 154 6,100  Level New York TRACON
06:30PM 41.4667 -73.0500 236° Southwest 134 154 6,100  Level New York TRACON
06:31PM 41.4500 -73.1000 246° West 136 157 6,100  Level New York TRACON
06:32PM 41.4333 -73.1333 236° Southwest 138 159 6,100 -60 Level New York TRACON
06:33PM 41.4167 -73.1833 246° West 140 161 6,000 -60 Descending New York TRACON
06:34PM 41.4167 -73.2333 270° West 137 158 6,000  Level New York TRACON
06:35PM 41.3833 -73.2667 217° Southwest 135 155 6,100  Climbing New York TRACON
06:36PM 41.3667 -73.3167 246° West 138 159 6,000  Descending New York TRACON
06:37PM 41.3667 -73.3667 270° West 137 158 6,100  Climbing New York TRACON
06:38PM 41.3500 -73.4000 236° Southwest 138 159 6,000 -60 Descending New York TRACON
06:39PM 41.3167 -73.4667 236° Southwest 134 154 6,000  Level New York TRACON
06:40PM 41.3000 -73.5000 236° Southwest 137 158 6,100  Climbing New York TRACON
06:41PM 41.2833 -73.5500 246° West 138 159 6,000 -60 Descending New York TRACON
06:42PM 41.2833 -73.5833 270° West 140 161 6,000 120 Level New York TRACON
06:43PM 41.2667 -73.6333 246° West 137 158 6,300  Climbing New York TRACON
06:44PM 41.2667 -73.6833 270° West 145 167 6,000 -180 Descending New York TRACON
06:45PM 41.2667 -73.7333 270° West 139 160 6,000 -120 Level New York TRACON
06:46PM 41.2667 -73.7833 270° West 144 166 5,800 -600 Descending New York TRACON
06:47PM 41.2667 -73.8333 270° West 153 176 4,900 -840 Descending New York TRACON
06:48PM 41.2500 -73.9000 252° West 150 173 4,200 -480 Descending New York TRACON
06:49PM 41.2333 -73.9500 246° West 147 169 4,000 -60 Descending New York TRACON
06:50PM 41.2167 -74.0000 246° West 136 157 4,100  Climbing New York TRACON
06:51PM 41.2167 -74.0500 270° West 142 163 4,000 -120 Descending New York TRACON
06:52PM 41.1833 -74.0833 217° Southwest 140 161 3,900 -240 Descending New York TRACON
06:53PM 41.1667 -74.1167 236° Southwest 147 169 3,600 -360 Descending New York TRACON
06:54PM 41.1167 -74.1500 207° Southwest 149 171 3,200 -300 Descending New York TRACON
06:55PM 41.0833 -74.1667 201° Southwest 138 159 3,000 -60 Descending New York TRACON
06:56PM 41.0667 -74.1833 217° Southwest 131 151 3,100  Climbing New York TRACON
06:57PM 41.0333 -74.2167 217° Southwest 130 150 3,100 -60 Level New York TRACON
06:58PM 41.0000 -74.2333 201° Southwest 130 150 3,000 -60 Descending New York TRACON
06:59PM 40.9667 -74.2500 201° Southwest 118 136 3,000 -420 Level New York TRACON
07:00PM 40.9500 -74.2667 217° Southwest 108 124 2,200 -480 Descending New York TRACON
07:01PM 40.9167 -74.3000 217° Southwest 104 120 2,100 -60 Descending New York TRACON
07:02PM 40.9000 -74.3167 217° Southwest 111 128 2,100 -60 Level New York TRACON
07:03PM 40.8667 -74.3500 217° Southwest 94 108 2,000 -360 Descending New York TRACON
07:04PM 40.8500 -74.3667 217° Southwest 85 98 1,400 -360 Descending New York TRACON
07:05PM 40.8333 -74.3833 217° Southwest 82 94 1,300 -120 Descending New York TRACON
07:07PM 40.7914 -74.3973 194° South  Level FlightAware Approximate
07:14PM 40.7833 -74.4000 210° Southwest  Level FlightAware Approximate
07:15PM 40.7993 -74.4149 210° Southwest  Level Estimated
07:16PM 40.7993 -74.4149 210° Southwest  Level Estimated
07:17PM 40.7993 -74.4149 210° Southwest  Level Estimated